sensor_id;sensor_type;location;lat;lon;timestamp;P1;durP1;ratioP1;P2;durP2;ratioP2
4074;SDS011;2052;53.522;9.806;2024-01-06T00:01:01;9.73;;;6.27;;
4074;SDS011;2052;53.522;9.806;2024-01-06T00:03:28;11.70;;;5.07;;
4074;SDS011;2052;53.522;9.806;2024-01-06T00:05:54;8.50;;;5.33;;
4074;SDS011;2052;53.522;9.806;2024-01-06T00:08:21;12.23;;;6.33;;
4074;SDS011;2052;53.522;9.806;2024-01-06T00:10:48;12.97;;;6.07;;
4074;SDS011;2052;53.522;9.806;2024-01-06T00:13:17;10.97;;;6.07;;
4074;SDS011;2052;53.522;9.806;2024-01-06T00:15:44;8.27;;;5.00;;
4074;SDS011;2052;53.522;9.806;2024-01-06T00:18:11;11.30;;;5.57;;
4074;SDS011;2052;53.522;9.806;2024-01-06T00:20:38;11.43;;;5.73;;
4074;SDS011;2052;53.522;9.806;2024-01-06T00:23:05;10.27;;;6.03;;
4074;SDS011;2052;53.522;9.806;2024-01-06T00:25:31;8.53;;;5.23;;
4074;SDS011;2052;53.522;9.806;2024-01-06T00:27:58;11.57;;;6.10;;
4074;SDS011;2052;53.522;9.806;2024-01-06T00:30:26;8.80;;;5.33;;
4074;SDS011;2052;53.522;9.806;2024-01-06T00:32:53;8.17;;;5.80;;
4074;SDS011;2052;53.522;9.806;2024-01-06T00:35:20;12.00;;;6.40;;
4074;SDS011;2052;53.522;9.806;2024-01-06T00:37:46;9.57;;;6.00;;
4074;SDS011;2052;53.522;9.806;2024-01-06T00:40:13;10.90;;;5.30;;
4074;SDS011;2052;53.522;9.806;2024-01-06T00:42:40;11.20;;;7.23;;
4074;SDS011;2052;53.522;9.806;2024-01-06T00:45:07;9.87;;;5.07;;
4074;SDS011;2052;53.522;9.806;2024-01-06T00:47:35;10.47;;;6.67;;
4074;SDS011;2052;53.522;9.806;2024-01-06T00:50:02;9.73;;;5.67;;
4074;SDS011;2052;53.522;9.806;2024-01-06T00:52:30;11.50;;;6.70;;
4074;SDS011;2052;53.522;9.806;2024-01-06T00:54:56;12.53;;;6.70;;
4074;SDS011;2052;53.522;9.806;2024-01-06T00:57:23;9.67;;;6.50;;
4074;SDS011;2052;53.522;9.806;2024-01-06T00:59:50;13.13;;;7.97;;
4074;SDS011;2052;53.522;9.806;2024-01-06T01:02:16;18.43;;;7.40;;
4074;SDS011;2052;53.522;9.806;2024-01-06T01:04:44;14.80;;;7.77;;
4074;SDS011;2052;53.522;9.806;2024-01-06T01:07:12;14.50;;;6.97;;
4074;SDS011;2052;53.522;9.806;2024-01-06T01:09:39;12.10;;;6.80;;
4074;SDS011;2052;53.522;9.806;2024-01-06T01:12:05;12.30;;;6.87;;
4074;SDS011;2052;53.522;9.806;2024-01-06T01:14:32;12.23;;;5.60;;
4074;SDS011;2052;53.522;9.806;2024-01-06T01:16:59;13.50;;;6.07;;
4074;SDS011;2052;53.522;9.806;2024-01-06T01:19:26;9.97;;;5.83;;
4074;SDS011;2052;53.522;9.806;2024-01-06T01:21:54;13.30;;;6.90;;
4074;SDS011;2052;53.522;9.806;2024-01-06T01:24:20;10.47;;;6.27;;
4074;SDS011;2052;53.522;9.806;2024-01-06T01:26:47;10.90;;;6.87;;
4074;SDS011;2052;53.522;9.806;2024-01-06T01:29:13;13.90;;;7.53;;
4074;SDS011;2052;53.522;9.806;2024-01-06T01:31:40;13.20;;;6.20;;
4074;SDS011;2052;53.522;9.806;2024-01-06T01:34:06;14.57;;;6.83;;
4074;SDS011;2052;53.522;9.806;2024-01-06T01:36:35;10.43;;;6.27;;
4074;SDS011;2052;53.522;9.806;2024-01-06T01:39:03;13.77;;;7.30;;
4074;SDS011;2052;53.522;9.806;2024-01-06T01:41:32;13.97;;;5.70;;
4074;SDS011;2052;53.522;9.806;2024-01-06T01:43:59;17.20;;;7.73;;
4074;SDS011;2052;53.522;9.806;2024-01-06T01:46:26;10.23;;;6.40;;
4074;SDS011;2052;53.522;9.806;2024-01-06T01:48:53;11.47;;;6.50;;
4074;SDS011;2052;53.522;9.806;2024-01-06T01:51:20;14.17;;;7.10;;
4074;SDS011;2052;53.522;9.806;2024-01-06T01:53:46;17.00;;;7.53;;
4074;SDS011;2052;53.522;9.806;2024-01-06T01:56:14;12.10;;;7.03;;
4074;SDS011;2052;53.522;9.806;2024-01-06T01:58:42;19.60;;;7.97;;
4074;SDS011;2052;53.522;9.806;2024-01-06T02:01:09;11.47;;;7.00;;
4074;SDS011;2052;53.522;9.806;2024-01-06T02:03:37;13.73;;;7.43;;
4074;SDS011;2052;53.522;9.806;2024-01-06T02:06:04;14.87;;;6.90;;
4074;SDS011;2052;53.522;9.806;2024-01-06T02:08:31;11.03;;;7.13;;
4074;SDS011;2052;53.522;9.806;2024-01-06T02:10:58;9.97;;;6.43;;
4074;SDS011;2052;53.522;9.806;2024-01-06T02:13:29;12.27;;;6.80;;
4074;SDS011;2052;53.522;9.806;2024-01-06T02:15:59;13.47;;;7.37;;
4074;SDS011;2052;53.522;9.806;2024-01-06T02:18:25;13.03;;;7.80;;
4074;SDS011;2052;53.522;9.806;2024-01-06T02:20:52;12.80;;;7.17;;
4074;SDS011;2052;53.522;9.806;2024-01-06T02:23:20;15.13;;;6.90;;
4074;SDS011;2052;53.522;9.806;2024-01-06T02:25:47;10.90;;;6.10;;
4074;SDS011;2052;53.522;9.806;2024-01-06T02:28:13;14.73;;;7.47;;
4074;SDS011;2052;53.522;9.806;2024-01-06T02:30:40;13.80;;;6.50;;
4074;SDS011;2052;53.522;9.806;2024-01-06T02:33:07;11.97;;;6.80;;
4074;SDS011;2052;53.522;9.806;2024-01-06T02:35:36;14.40;;;6.83;;
4074;SDS011;2052;53.522;9.806;2024-01-06T02:38:02;14.07;;;7.20;;
4074;SDS011;2052;53.522;9.806;2024-01-06T02:40:31;14.40;;;7.50;;
4074;SDS011;2052;53.522;9.806;2024-01-06T02:42:57;14.60;;;8.30;;
4074;SDS011;2052;53.522;9.806;2024-01-06T02:45:24;17.67;;;7.27;;
4074;SDS011;2052;53.522;9.806;2024-01-06T02:47:50;11.73;;;7.23;;
4074;SDS011;2052;53.522;9.806;2024-01-06T02:50:17;12.50;;;6.93;;
4074;SDS011;2052;53.522;9.806;2024-01-06T02:52:44;14.70;;;8.20;;
4074;SDS011;2052;53.522;9.806;2024-01-06T02:55:11;10.63;;;7.03;;
4074;SDS011;2052;53.522;9.806;2024-01-06T02:57:39;12.87;;;7.40;;
4074;SDS011;2052;53.522;9.806;2024-01-06T03:00:06;10.30;;;6.93;;
4074;SDS011;2052;53.522;9.806;2024-01-06T03:02:34;8.57;;;5.67;;
4074;SDS011;2052;53.522;9.806;2024-01-06T03:05:02;11.60;;;6.10;;
4074;SDS011;2052;53.522;9.806;2024-01-06T03:07:29;10.07;;;6.77;;
4074;SDS011;2052;53.522;9.806;2024-01-06T03:09:56;8.33;;;5.50;;
4074;SDS011;2052;53.522;9.806;2024-01-06T03:12:22;18.43;;;7.17;;
4074;SDS011;2052;53.522;9.806;2024-01-06T03:14:50;14.30;;;6.83;;
4074;SDS011;2052;53.522;9.806;2024-01-06T03:17:17;11.30;;;7.27;;
4074;SDS011;2052;53.522;9.806;2024-01-06T03:19:47;12.80;;;6.80;;
4074;SDS011;2052;53.522;9.806;2024-01-06T03:22:13;13.40;;;7.07;;
4074;SDS011;2052;53.522;9.806;2024-01-06T03:24:39;13.83;;;6.43;;
4074;SDS011;2052;53.522;9.806;2024-01-06T03:27:06;10.97;;;6.43;;
4074;SDS011;2052;53.522;9.806;2024-01-06T03:29:34;12.90;;;6.60;;
4074;SDS011;2052;53.522;9.806;2024-01-06T03:32:02;12.67;;;6.80;;
4074;SDS011;2052;53.522;9.806;2024-01-06T03:34:28;11.53;;;7.50;;
4074;SDS011;2052;53.522;9.806;2024-01-06T03:36:55;14.57;;;8.73;;
4074;SDS011;2052;53.522;9.806;2024-01-06T03:39:23;14.03;;;6.67;;
4074;SDS011;2052;53.522;9.806;2024-01-06T03:41:49;11.50;;;7.13;;
4074;SDS011;2052;53.522;9.806;2024-01-06T03:44:16;10.60;;;7.00;;
4074;SDS011;2052;53.522;9.806;2024-01-06T03:46:43;14.97;;;7.70;;
4074;SDS011;2052;53.522;9.806;2024-01-06T03:49:12;13.77;;;7.90;;
4074;SDS011;2052;53.522;9.806;2024-01-06T03:51:38;14.73;;;7.80;;
4074;SDS011;2052;53.522;9.806;2024-01-06T03:54:05;14.07;;;7.37;;
4074;SDS011;2052;53.522;9.806;2024-01-06T03:56:31;13.10;;;7.60;;
4074;SDS011;2052;53.522;9.806;2024-01-06T03:58:58;14.93;;;8.03;;
4074;SDS011;2052;53.522;9.806;2024-01-06T04:01:24;13.87;;;7.67;;
4074;SDS011;2052;53.522;9.806;2024-01-06T04:03:51;14.60;;;6.33;;
4074;SDS011;2052;53.522;9.806;2024-01-06T04:06:19;11.67;;;7.37;;
4074;SDS011;2052;53.522;9.806;2024-01-06T04:08:45;18.03;;;8.20;;
4074;SDS011;2052;53.522;9.806;2024-01-06T04:11:12;11.17;;;7.20;;
4074;SDS011;2052;53.522;9.806;2024-01-06T04:13:40;13.63;;;7.63;;
4074;SDS011;2052;53.522;9.806;2024-01-06T04:16:07;17.53;;;8.20;;
4074;SDS011;2052;53.522;9.806;2024-01-06T04:18:33;11.20;;;7.60;;
4074;SDS011;2052;53.522;9.806;2024-01-06T04:21:00;14.40;;;8.47;;
4074;SDS011;2052;53.522;9.806;2024-01-06T04:23:28;19.43;;;8.40;;
4074;SDS011;2052;53.522;9.806;2024-01-06T04:25:53;13.70;;;7.70;;
4074;SDS011;2052;53.522;9.806;2024-01-06T04:28:20;16.77;;;8.30;;
4074;SDS011;2052;53.522;9.806;2024-01-06T04:30:46;10.43;;;6.93;;
4074;SDS011;2052;53.522;9.806;2024-01-06T04:33:13;13.27;;;6.87;;
4074;SDS011;2052;53.522;9.806;2024-01-06T04:35:40;12.23;;;6.90;;
4074;SDS011;2052;53.522;9.806;2024-01-06T04:38:06;12.60;;;7.60;;
4074;SDS011;2052;53.522;9.806;2024-01-06T04:40:36;16.43;;;7.80;;
4074;SDS011;2052;53.522;9.806;2024-01-06T04:43:03;13.33;;;6.70;;
4074;SDS011;2052;53.522;9.806;2024-01-06T04:45:29;12.87;;;7.30;;
4074;SDS011;2052;53.522;9.806;2024-01-06T04:47:57;14.57;;;7.60;;
4074;SDS011;2052;53.522;9.806;2024-01-06T04:50:24;16.20;;;6.63;;
4074;SDS011;2052;53.522;9.806;2024-01-06T04:52:50;12.50;;;7.87;;
4074;SDS011;2052;53.522;9.806;2024-01-06T04:55:17;10.37;;;6.53;;
4074;SDS011;2052;53.522;9.806;2024-01-06T04:57:45;13.80;;;7.17;;
4074;SDS011;2052;53.522;9.806;2024-01-06T05:00:12;14.57;;;8.07;;
4074;SDS011;2052;53.522;9.806;2024-01-06T05:02:39;13.03;;;7.73;;
4074;SDS011;2052;53.522;9.806;2024-01-06T05:05:06;15.97;;;7.47;;
4074;SDS011;2052;53.522;9.806;2024-01-06T05:07:33;14.67;;;7.87;;
4074;SDS011;2052;53.522;9.806;2024-01-06T05:09:59;16.30;;;7.20;;
4074;SDS011;2052;53.522;9.806;2024-01-06T05:12:26;14.77;;;8.40;;
4074;SDS011;2052;53.522;9.806;2024-01-06T05:14:54;18.50;;;8.30;;
4074;SDS011;2052;53.522;9.806;2024-01-06T05:17:21;18.23;;;8.57;;
4074;SDS011;2052;53.522;9.806;2024-01-06T05:19:48;14.10;;;8.63;;
4074;SDS011;2052;53.522;9.806;2024-01-06T05:22:14;14.00;;;8.17;;
4074;SDS011;2052;53.522;9.806;2024-01-06T05:24:41;13.43;;;7.63;;
4074;SDS011;2052;53.522;9.806;2024-01-06T05:27:08;19.87;;;9.37;;
4074;SDS011;2052;53.522;9.806;2024-01-06T05:29:34;17.20;;;9.80;;
4074;SDS011;2052;53.522;9.806;2024-01-06T05:32:02;14.93;;;8.60;;
4074;SDS011;2052;53.522;9.806;2024-01-06T05:34:29;13.10;;;7.77;;
4074;SDS011;2052;53.522;9.806;2024-01-06T05:36:56;18.70;;;7.77;;
4074;SDS011;2052;53.522;9.806;2024-01-06T05:39:22;17.13;;;8.27;;
4074;SDS011;2052;53.522;9.806;2024-01-06T05:41:49;13.57;;;7.70;;
4074;SDS011;2052;53.522;9.806;2024-01-06T05:44:16;14.17;;;7.93;;
4074;SDS011;2052;53.522;9.806;2024-01-06T05:46:42;17.17;;;8.23;;
4074;SDS011;2052;53.522;9.806;2024-01-06T05:49:10;12.60;;;7.67;;
4074;SDS011;2052;53.522;9.806;2024-01-06T05:51:37;12.77;;;7.50;;
4074;SDS011;2052;53.522;9.806;2024-01-06T05:54:03;13.67;;;7.03;;
4074;SDS011;2052;53.522;9.806;2024-01-06T05:56:30;18.00;;;8.23;;
4074;SDS011;2052;53.522;9.806;2024-01-06T05:58:56;17.53;;;9.03;;
4074;SDS011;2052;53.522;9.806;2024-01-06T06:01:23;14.50;;;7.50;;
4074;SDS011;2052;53.522;9.806;2024-01-06T06:03:50;13.20;;;6.80;;
4074;SDS011;2052;53.522;9.806;2024-01-06T06:06:18;11.90;;;7.50;;
4074;SDS011;2052;53.522;9.806;2024-01-06T06:08:45;12.63;;;7.60;;
4074;SDS011;2052;53.522;9.806;2024-01-06T06:11:13;16.53;;;8.10;;
4074;SDS011;2052;53.522;9.806;2024-01-06T06:13:40;16.33;;;7.50;;
4074;SDS011;2052;53.522;9.806;2024-01-06T06:16:07;18.13;;;8.13;;
4074;SDS011;2052;53.522;9.806;2024-01-06T06:18:35;13.80;;;7.80;;
4074;SDS011;2052;53.522;9.806;2024-01-06T06:21:02;12.00;;;8.00;;
4074;SDS011;2052;53.522;9.806;2024-01-06T06:23:30;21.03;;;8.30;;
4074;SDS011;2052;53.522;9.806;2024-01-06T06:25:57;15.07;;;8.70;;
4074;SDS011;2052;53.522;9.806;2024-01-06T06:28:26;14.70;;;8.50;;
4074;SDS011;2052;53.522;9.806;2024-01-06T06:30:53;17.20;;;8.27;;
4074;SDS011;2052;53.522;9.806;2024-01-06T06:33:20;18.57;;;8.43;;
4074;SDS011;2052;53.522;9.806;2024-01-06T06:35:47;12.40;;;8.37;;
4074;SDS011;2052;53.522;9.806;2024-01-06T06:38:14;17.50;;;7.90;;
4074;SDS011;2052;53.522;9.806;2024-01-06T06:40:42;14.10;;;8.67;;
4074;SDS011;2052;53.522;9.806;2024-01-06T06:43:08;14.10;;;8.50;;
4074;SDS011;2052;53.522;9.806;2024-01-06T06:45:35;20.57;;;10.00;;
4074;SDS011;2052;53.522;9.806;2024-01-06T06:48:02;17.70;;;7.90;;
4074;SDS011;2052;53.522;9.806;2024-01-06T06:50:28;16.30;;;8.50;;
4074;SDS011;2052;53.522;9.806;2024-01-06T06:52:56;15.00;;;7.83;;
4074;SDS011;2052;53.522;9.806;2024-01-06T06:55:22;17.70;;;10.20;;
4074;SDS011;2052;53.522;9.806;2024-01-06T06:57:51;14.93;;;7.77;;
4074;SDS011;2052;53.522;9.806;2024-01-06T07:00:17;13.70;;;8.53;;
4074;SDS011;2052;53.522;9.806;2024-01-06T07:02:45;21.97;;;10.40;;
4074;SDS011;2052;53.522;9.806;2024-01-06T07:05:11;20.50;;;8.40;;
4074;SDS011;2052;53.522;9.806;2024-01-06T07:07:38;13.90;;;9.00;;
4074;SDS011;2052;53.522;9.806;2024-01-06T07:10:05;15.00;;;8.47;;
4074;SDS011;2052;53.522;9.806;2024-01-06T07:12:32;19.03;;;8.87;;
4074;SDS011;2052;53.522;9.806;2024-01-06T07:15:00;19.70;;;10.87;;
4074;SDS011;2052;53.522;9.806;2024-01-06T07:17:27;14.80;;;8.00;;
4074;SDS011;2052;53.522;9.806;2024-01-06T07:19:54;19.20;;;9.77;;
4074;SDS011;2052;53.522;9.806;2024-01-06T07:22:20;16.10;;;8.27;;
4074;SDS011;2052;53.522;9.806;2024-01-06T07:24:47;21.00;;;10.50;;
4074;SDS011;2052;53.522;9.806;2024-01-06T07:27:13;15.90;;;8.70;;
4074;SDS011;2052;53.522;9.806;2024-01-06T07:29:40;16.03;;;8.87;;
4074;SDS011;2052;53.522;9.806;2024-01-06T07:32:08;16.93;;;8.53;;
4074;SDS011;2052;53.522;9.806;2024-01-06T07:34:35;23.47;;;9.30;;
4074;SDS011;2052;53.522;9.806;2024-01-06T07:37:01;15.10;;;8.53;;
4074;SDS011;2052;53.522;9.806;2024-01-06T07:39:28;19.17;;;8.47;;
4074;SDS011;2052;53.522;9.806;2024-01-06T07:41:55;15.07;;;7.90;;
4074;SDS011;2052;53.522;9.806;2024-01-06T07:44:21;20.03;;;9.40;;
4074;SDS011;2052;53.522;9.806;2024-01-06T07:46:49;18.80;;;9.83;;
4074;SDS011;2052;53.522;9.806;2024-01-06T07:49:17;16.00;;;8.43;;
4074;SDS011;2052;53.522;9.806;2024-01-06T07:51:44;19.40;;;9.17;;
4074;SDS011;2052;53.522;9.806;2024-01-06T07:54:11;19.13;;;9.90;;
4074;SDS011;2052;53.522;9.806;2024-01-06T07:56:38;19.07;;;9.27;;
4074;SDS011;2052;53.522;9.806;2024-01-06T07:59:04;20.07;;;9.70;;
4074;SDS011;2052;53.522;9.806;2024-01-06T08:01:31;21.70;;;9.20;;
4074;SDS011;2052;53.522;9.806;2024-01-06T08:03:58;16.30;;;9.40;;
4074;SDS011;2052;53.522;9.806;2024-01-06T08:06:26;18.27;;;9.93;;
4074;SDS011;2052;53.522;9.806;2024-01-06T08:08:52;20.37;;;9.33;;
4074;SDS011;2052;53.522;9.806;2024-01-06T08:11:19;15.30;;;7.70;;
4074;SDS011;2052;53.522;9.806;2024-01-06T08:13:47;19.10;;;9.57;;
4074;SDS011;2052;53.522;9.806;2024-01-06T08:16:14;21.13;;;11.33;;
4074;SDS011;2052;53.522;9.806;2024-01-06T08:18:40;18.70;;;9.73;;
4074;SDS011;2052;53.522;9.806;2024-01-06T08:21:07;26.50;;;10.70;;
4074;SDS011;2052;53.522;9.806;2024-01-06T08:23:35;16.80;;;8.27;;
4074;SDS011;2052;53.522;9.806;2024-01-06T08:26:01;23.20;;;8.70;;
4074;SDS011;2052;53.522;9.806;2024-01-06T08:28:29;20.13;;;8.60;;
4074;SDS011;2052;53.522;9.806;2024-01-06T08:30:55;19.63;;;9.30;;
4074;SDS011;2052;53.522;9.806;2024-01-06T08:33:22;14.27;;;8.70;;
4074;SDS011;2052;53.522;9.806;2024-01-06T08:35:48;20.73;;;9.70;;
4074;SDS011;2052;53.522;9.806;2024-01-06T08:38:15;13.20;;;8.40;;
4074;SDS011;2052;53.522;9.806;2024-01-06T08:40:43;18.20;;;10.00;;
4074;SDS011;2052;53.522;9.806;2024-01-06T08:43:13;15.53;;;8.50;;
4074;SDS011;2052;53.522;9.806;2024-01-06T08:45:39;18.13;;;9.30;;
4074;SDS011;2052;53.522;9.806;2024-01-06T08:48:07;18.77;;;9.50;;
4074;SDS011;2052;53.522;9.806;2024-01-06T08:50:34;19.63;;;8.43;;
4074;SDS011;2052;53.522;9.806;2024-01-06T08:53:01;20.90;;;10.67;;
4074;SDS011;2052;53.522;9.806;2024-01-06T08:55:27;14.50;;;8.70;;
4074;SDS011;2052;53.522;9.806;2024-01-06T08:57:55;17.80;;;8.97;;
4074;SDS011;2052;53.522;9.806;2024-01-06T09:00:21;20.70;;;9.90;;
4074;SDS011;2052;53.522;9.806;2024-01-06T09:02:48;19.57;;;8.17;;
4074;SDS011;2052;53.522;9.806;2024-01-06T09:05:15;16.40;;;8.70;;
4074;SDS011;2052;53.522;9.806;2024-01-06T09:07:41;16.03;;;8.33;;
4074;SDS011;2052;53.522;9.806;2024-01-06T09:10:08;19.30;;;8.17;;
4074;SDS011;2052;53.522;9.806;2024-01-06T09:12:35;15.10;;;8.73;;
4074;SDS011;2052;53.522;9.806;2024-01-06T09:15:03;23.77;;;9.67;;
4074;SDS011;2052;53.522;9.806;2024-01-06T09:17:30;18.30;;;8.73;;
4074;SDS011;2052;53.522;9.806;2024-01-06T09:19:57;18.37;;;8.70;;
4074;SDS011;2052;53.522;9.806;2024-01-06T09:22:23;17.57;;;8.93;;
4074;SDS011;2052;53.522;9.806;2024-01-06T09:24:50;16.17;;;8.67;;
4074;SDS011;2052;53.522;9.806;2024-01-06T09:27:17;17.03;;;9.37;;
4074;SDS011;2052;53.522;9.806;2024-01-06T09:29:44;17.80;;;8.47;;
4074;SDS011;2052;53.522;9.806;2024-01-06T09:32:12;15.00;;;7.67;;
4074;SDS011;2052;53.522;9.806;2024-01-06T09:34:40;20.57;;;8.30;;
4074;SDS011;2052;53.522;9.806;2024-01-06T09:37:06;12.37;;;7.00;;
4074;SDS011;2052;53.522;9.806;2024-01-06T09:39:33;18.70;;;9.40;;
4074;SDS011;2052;53.522;9.806;2024-01-06T09:42:00;19.20;;;8.63;;
4074;SDS011;2052;53.522;9.806;2024-01-06T09:44:27;10.97;;;7.20;;
4074;SDS011;2052;53.522;9.806;2024-01-06T09:46:54;18.40;;;8.30;;
4074;SDS011;2052;53.522;9.806;2024-01-06T09:49:23;15.47;;;7.47;;
4074;SDS011;2052;53.522;9.806;2024-01-06T09:51:50;14.73;;;8.87;;
4074;SDS011;2052;53.522;9.806;2024-01-06T09:54:19;13.80;;;8.77;;
4074;SDS011;2052;53.522;9.806;2024-01-06T09:56:49;18.00;;;8.90;;
4074;SDS011;2052;53.522;9.806;2024-01-06T09:59:15;16.20;;;8.80;;
4074;SDS011;2052;53.522;9.806;2024-01-06T10:01:43;14.37;;;7.80;;
4074;SDS011;2052;53.522;9.806;2024-01-06T10:04:10;21.50;;;8.40;;
4074;SDS011;2052;53.522;9.806;2024-01-06T10:06:38;13.87;;;8.00;;
4074;SDS011;2052;53.522;9.806;2024-01-06T10:09:04;22.00;;;9.93;;
4074;SDS011;2052;53.522;9.806;2024-01-06T10:11:31;16.23;;;8.60;;
4074;SDS011;2052;53.522;9.806;2024-01-06T10:13:58;17.33;;;8.93;;
4074;SDS011;2052;53.522;9.806;2024-01-06T10:16:24;17.93;;;8.07;;
4074;SDS011;2052;53.522;9.806;2024-01-06T10:18:51;16.20;;;8.90;;
4074;SDS011;2052;53.522;9.806;2024-01-06T10:21:19;16.47;;;8.13;;
4074;SDS011;2052;53.522;9.806;2024-01-06T10:23:48;14.33;;;7.63;;
4074;SDS011;2052;53.522;9.806;2024-01-06T10:26:15;18.80;;;8.77;;
4074;SDS011;2052;53.522;9.806;2024-01-06T10:28:42;19.00;;;9.37;;
4074;SDS011;2052;53.522;9.806;2024-01-06T10:31:09;21.83;;;8.37;;
4074;SDS011;2052;53.522;9.806;2024-01-06T10:33:36;13.90;;;8.23;;
4074;SDS011;2052;53.522;9.806;2024-01-06T10:36:04;17.90;;;8.17;;
4074;SDS011;2052;53.522;9.806;2024-01-06T10:38:32;13.60;;;7.80;;
4074;SDS011;2052;53.522;9.806;2024-01-06T10:41:01;19.50;;;10.50;;
4074;SDS011;2052;53.522;9.806;2024-01-06T10:43:32;16.07;;;8.37;;
4074;SDS011;2052;53.522;9.806;2024-01-06T10:46:01;18.80;;;8.80;;
4074;SDS011;2052;53.522;9.806;2024-01-06T10:48:29;14.77;;;8.73;;
4074;SDS011;2052;53.522;9.806;2024-01-06T10:50:57;19.30;;;9.73;;
4074;SDS011;2052;53.522;9.806;2024-01-06T10:53:25;16.93;;;8.53;;
4074;SDS011;2052;53.522;9.806;2024-01-06T10:55:52;15.37;;;8.33;;
4074;SDS011;2052;53.522;9.806;2024-01-06T10:58:21;22.03;;;10.10;;
4074;SDS011;2052;53.522;9.806;2024-01-06T11:00:47;13.50;;;8.23;;
4074;SDS011;2052;53.522;9.806;2024-01-06T11:03:14;17.63;;;8.67;;
4074;SDS011;2052;53.522;9.806;2024-01-06T11:05:41;14.30;;;7.57;;
4074;SDS011;2052;53.522;9.806;2024-01-06T11:08:08;15.53;;;8.97;;
4074;SDS011;2052;53.522;9.806;2024-01-06T11:10:35;12.33;;;7.10;;
4074;SDS011;2052;53.522;9.806;2024-01-06T11:13:08;16.50;;;8.57;;
4074;SDS011;2052;53.522;9.806;2024-01-06T11:15:40;20.23;;;8.87;;
4074;SDS011;2052;53.522;9.806;2024-01-06T11:18:08;13.33;;;6.70;;
4074;SDS011;2052;53.522;9.806;2024-01-06T11:20:34;20.27;;;7.67;;
4074;SDS011;2052;53.522;9.806;2024-01-06T11:25:43;15.30;;;8.47;;
4074;SDS011;2052;53.522;9.806;2024-01-06T11:28:10;16.23;;;7.20;;
4074;SDS011;2052;53.522;9.806;2024-01-06T11:30:37;16.70;;;7.50;;
4074;SDS011;2052;53.522;9.806;2024-01-06T11:33:06;13.50;;;6.70;;
4074;SDS011;2052;53.522;9.806;2024-01-06T11:35:36;15.20;;;7.77;;
4074;SDS011;2052;53.522;9.806;2024-01-06T11:38:06;16.87;;;8.00;;
4074;SDS011;2052;53.522;9.806;2024-01-06T11:40:33;20.23;;;8.10;;
4074;SDS011;2052;53.522;9.806;2024-01-06T11:43:01;14.57;;;7.33;;
4074;SDS011;2052;53.522;9.806;2024-01-06T11:45:32;14.50;;;7.10;;
4074;SDS011;2052;53.522;9.806;2024-01-06T11:47:59;13.53;;;6.97;;
4074;SDS011;2052;53.522;9.806;2024-01-06T11:50:29;13.33;;;6.77;;
4074;SDS011;2052;53.522;9.806;2024-01-06T11:52:56;12.40;;;6.43;;
4074;SDS011;2052;53.522;9.806;2024-01-06T11:55:23;12.60;;;6.20;;
4074;SDS011;2052;53.522;9.806;2024-01-06T11:57:53;13.87;;;6.80;;
4074;SDS011;2052;53.522;9.806;2024-01-06T12:00:19;11.23;;;6.40;;
4074;SDS011;2052;53.522;9.806;2024-01-06T12:02:46;9.20;;;6.17;;
4074;SDS011;2052;53.522;9.806;2024-01-06T12:05:13;9.90;;;6.13;;
4074;SDS011;2052;53.522;9.806;2024-01-06T12:07:42;14.33;;;6.60;;
4074;SDS011;2052;53.522;9.806;2024-01-06T12:10:08;14.67;;;7.27;;
4074;SDS011;2052;53.522;9.806;2024-01-06T12:12:36;11.27;;;6.50;;
4074;SDS011;2052;53.522;9.806;2024-01-06T12:15:03;11.03;;;6.10;;
4074;SDS011;2052;53.522;9.806;2024-01-06T12:17:30;12.43;;;6.27;;
4074;SDS011;2052;53.522;9.806;2024-01-06T12:19:58;10.97;;;5.80;;
4074;SDS011;2052;53.522;9.806;2024-01-06T12:22:25;12.27;;;6.73;;
4074;SDS011;2052;53.522;9.806;2024-01-06T12:24:53;14.77;;;6.33;;
4074;SDS011;2052;53.522;9.806;2024-01-06T12:27:20;9.53;;;6.97;;
4074;SDS011;2052;53.522;9.806;2024-01-06T12:29:47;12.23;;;6.40;;
4074;SDS011;2052;53.522;9.806;2024-01-06T12:32:14;10.37;;;5.23;;
4074;SDS011;2052;53.522;9.806;2024-01-06T12:34:40;10.93;;;6.70;;
4074;SDS011;2052;53.522;9.806;2024-01-06T12:37:07;10.60;;;5.60;;
4074;SDS011;2052;53.522;9.806;2024-01-06T12:39:33;9.53;;;5.80;;
4074;SDS011;2052;53.522;9.806;2024-01-06T12:42:02;11.53;;;6.10;;
4074;SDS011;2052;53.522;9.806;2024-01-06T12:44:29;8.83;;;5.40;;
4074;SDS011;2052;53.522;9.806;2024-01-06T12:46:58;10.00;;;6.00;;
4074;SDS011;2052;53.522;9.806;2024-01-06T12:49:25;8.63;;;5.40;;
4074;SDS011;2052;53.522;9.806;2024-01-06T12:51:51;11.27;;;5.37;;
4074;SDS011;2052;53.522;9.806;2024-01-06T12:54:18;7.77;;;5.20;;
4074;SDS011;2052;53.522;9.806;2024-01-06T12:56:45;10.27;;;5.60;;
4074;SDS011;2052;53.522;9.806;2024-01-06T12:59:13;9.60;;;4.97;;
4074;SDS011;2052;53.522;9.806;2024-01-06T13:01:39;7.80;;;4.70;;
4074;SDS011;2052;53.522;9.806;2024-01-06T13:04:06;10.63;;;5.80;;
4074;SDS011;2052;53.522;9.806;2024-01-06T13:06:32;10.83;;;5.53;;
4074;SDS011;2052;53.522;9.806;2024-01-06T13:08:59;8.27;;;4.50;;
4074;SDS011;2052;53.522;9.806;2024-01-06T13:11:27;9.23;;;4.63;;
4074;SDS011;2052;53.522;9.806;2024-01-06T13:13:54;13.60;;;4.70;;
4074;SDS011;2052;53.522;9.806;2024-01-06T13:16:22;12.00;;;5.67;;
4074;SDS011;2052;53.522;9.806;2024-01-06T13:18:48;9.13;;;4.93;;
4074;SDS011;2052;53.522;9.806;2024-01-06T13:21:15;8.07;;;5.37;;
4074;SDS011;2052;53.522;9.806;2024-01-06T13:23:42;7.83;;;4.73;;
4074;SDS011;2052;53.522;9.806;2024-01-06T13:26:09;6.73;;;4.20;;
4074;SDS011;2052;53.522;9.806;2024-01-06T13:28:35;7.57;;;4.13;;
4074;SDS011;2052;53.522;9.806;2024-01-06T13:31:02;8.43;;;4.57;;
4074;SDS011;2052;53.522;9.806;2024-01-06T13:33:30;7.63;;;5.20;;
4074;SDS011;2052;53.522;9.806;2024-01-06T13:35:57;10.53;;;4.93;;
4074;SDS011;2052;53.522;9.806;2024-01-06T13:38:24;11.17;;;4.00;;
4074;SDS011;2052;53.522;9.806;2024-01-06T13:40:51;8.40;;;4.67;;
4074;SDS011;2052;53.522;9.806;2024-01-06T13:43:19;7.10;;;4.47;;
4074;SDS011;2052;53.522;9.806;2024-01-06T13:45:45;8.77;;;4.83;;
4074;SDS011;2052;53.522;9.806;2024-01-06T13:48:12;9.40;;;5.40;;
4074;SDS011;2052;53.522;9.806;2024-01-06T13:50:41;9.10;;;4.63;;
4074;SDS011;2052;53.522;9.806;2024-01-06T13:53:11;7.80;;;4.97;;
4074;SDS011;2052;53.522;9.806;2024-01-06T13:55:38;6.20;;;4.13;;
4074;SDS011;2052;53.522;9.806;2024-01-06T13:58:04;5.57;;;4.30;;
4074;SDS011;2052;53.522;9.806;2024-01-06T14:00:34;10.40;;;4.80;;
4074;SDS011;2052;53.522;9.806;2024-01-06T14:03:01;8.20;;;4.67;;
4074;SDS011;2052;53.522;9.806;2024-01-06T14:05:28;6.77;;;4.07;;
4074;SDS011;2052;53.522;9.806;2024-01-06T14:07:56;8.23;;;5.50;;
4074;SDS011;2052;53.522;9.806;2024-01-06T14:10:22;6.83;;;4.80;;
4074;SDS011;2052;53.522;9.806;2024-01-06T14:12:49;10.80;;;4.80;;
4074;SDS011;2052;53.522;9.806;2024-01-06T14:15:16;14.20;;;5.73;;
4074;SDS011;2052;53.522;9.806;2024-01-06T14:17:42;6.60;;;3.90;;
4074;SDS011;2052;53.522;9.806;2024-01-06T14:20:14;6.23;;;4.10;;
4074;SDS011;2052;53.522;9.806;2024-01-06T14:22:42;10.63;;;4.53;;
4074;SDS011;2052;53.522;9.806;2024-01-06T14:25:10;9.50;;;4.93;;
4074;SDS011;2052;53.522;9.806;2024-01-06T14:27:38;7.70;;;4.70;;
4074;SDS011;2052;53.522;9.806;2024-01-06T14:30:05;8.50;;;5.07;;
4074;SDS011;2052;53.522;9.806;2024-01-06T14:32:34;6.73;;;4.10;;
4074;SDS011;2052;53.522;9.806;2024-01-06T14:35:02;8.10;;;4.77;;
4074;SDS011;2052;53.522;9.806;2024-01-06T14:37:28;10.30;;;5.20;;
4074;SDS011;2052;53.522;9.806;2024-01-06T14:39:55;8.37;;;4.90;;
4074;SDS011;2052;53.522;9.806;2024-01-06T14:42:23;10.20;;;5.47;;
4074;SDS011;2052;53.522;9.806;2024-01-06T14:44:49;7.80;;;4.90;;
4074;SDS011;2052;53.522;9.806;2024-01-06T14:47:16;10.43;;;5.07;;
4074;SDS011;2052;53.522;9.806;2024-01-06T14:49:42;11.97;;;5.43;;
4074;SDS011;2052;53.522;9.806;2024-01-06T14:52:09;8.27;;;5.33;;
4074;SDS011;2052;53.522;9.806;2024-01-06T14:54:36;9.27;;;5.00;;
4074;SDS011;2052;53.522;9.806;2024-01-06T14:57:03;11.23;;;5.00;;
4074;SDS011;2052;53.522;9.806;2024-01-06T14:59:31;9.37;;;5.20;;
4074;SDS011;2052;53.522;9.806;2024-01-06T15:01:58;11.10;;;5.23;;
4074;SDS011;2052;53.522;9.806;2024-01-06T15:04:24;6.80;;;4.93;;